Time;durP1;ratioP1;P1;durP2;ratioP2;P2;SDS_P1;SDS_P2;PMS_P1;PMS_P2;Temp;Humidity;BMP_temperature;BMP_pressure;BME280_temperature;BME280_humidity;BME280_pressure;Samples;Min_cycle;Max_cycle;Signal;HPM_P1;HPM_P2
2023/06/16 00:00:11;;;;;;;11.73;4.63;;;16.30;92.70;;;;;;4961542;28;20134;-87
2023/06/16 00:02:41;;;;;;;12.13;5.15;;;16.00;92.80;;;;;;4972956;28;20097;-87
2023/06/16 00:05:09;;;;;;;11.80;4.65;;;15.90;92.90;;;;;;4955881;28;20573;-87
2023/06/16 00:07:36;;;;;;;11.65;4.90;;;15.90;93.30;;;;;;4973127;28;20130;-86
2023/06/16 00:10:12;;;;;;;11.15;4.88;;;16.00;93.60;;;;;;4955441;28;20061;-87
2023/06/16 00:12:38;;;;;;;10.57;4.70;;;15.80;93.50;;;;;;4993387;28;20051;-87
2023/06/16 00:15:04;;;;;;;11.15;4.70;;;15.70;93.60;;;;;;4986155;28;20050;-87
2023/06/16 00:17:30;;;;;;;11.60;5.10;;;15.70;93.80;;;;;;5011694;28;20054;-86
2023/06/16 00:19:58;;;;;;;11.00;5.20;;;16.10;94.10;;;;;;4990458;28;20129;-87
2023/06/16 00:22:27;;;;;;;12.25;5.20;;;15.60;94.10;;;;;;4973341;28;20043;-87
2023/06/16 00:24:53;;;;;;;11.48;4.80;;;15.60;94.40;;;;;;4955332;28;20049;-87
2023/06/16 00:27:22;;;;;;;12.95;5.30;;;16.20;94.40;;;;;;4958804;28;20035;-87
2023/06/16 00:29:49;;;;;;;10.68;4.95;;;16.20;94.70;;;;;;4959691;28;20058;-87
2023/06/16 00:32:15;;;;;;;10.75;5.47;;;15.80;94.60;;;;;;4976070;28;20047;-87
2023/06/16 00:34:40;;;;;;;11.13;4.93;;;16.10;94.80;;;;;;4978052;28;20050;-87
2023/06/16 00:37:06;;;;;;;10.73;5.05;;;15.50;94.70;;;;;;4996402;28;20398;-87
2023/06/16 00:39:32;;;;;;;9.98;5.00;;;15.40;94.80;;;;;;5003751;28;20102;-86
2023/06/16 00:41:57;;;;;;;10.30;5.20;;;15.60;95.20;;;;;;5001410;28;20074;-86
2023/06/16 00:44:23;;;;;;;13.20;4.95;;;15.70;95.20;;;;;;4988029;28;20038;-87
2023/06/16 00:46:49;;;;;;;11.23;5.32;;;15.40;95.10;;;;;;4979042;28;20069;-87
2023/06/16 00:49:15;;;;;;;11.38;5.22;;;15.40;95.40;;;;;;4995727;28;20046;-87
2023/06/16 00:51:44;;;;;;;12.13;5.50;;;15.30;95.40;;;;;;4978146;28;20038;-87
2023/06/16 00:54:12;;;;;;;12.05;4.85;;;15.30;95.40;;;;;;4978064;28;20056;-86
2023/06/16 00:56:41;;;;;;;11.98;5.43;;;15.30;95.40;;;;;;4996234;28;20046;-87
2023/06/16 00:59:07;;;;;;;12.13;5.28;;;15.20;95.50;;;;;;4977712;28;20053;-87
2023/06/16 01:01:34;;;;;;;10.07;5.10;;;15.50;95.70;;;;;;4996107;28;20405;-87
2023/06/16 01:04:00;;;;;;;9.85;4.95;;;15.20;95.70;;;;;;4978285;28;20129;-86
2023/06/16 01:06:43;;;;;;;10.65;5.00;;;15.20;95.80;;;;;;4979107;28;20066;-87
2023/06/16 01:09:47;;;;;;;12.27;5.57;;;15.20;96.20;;;;;;4981400;28;20038;-87
2023/06/16 01:12:48;;;;;;;11.05;5.40;;;15.10;95.90;;;;;;4946448;28;20129;-86
2023/06/16 01:15:18;;;;;;;15.30;5.85;;;15.60;96.80;;;;;;4975939;28;20471;-86
2023/06/16 01:17:46;;;;;;;10.82;5.75;;;15.40;96.10;;;;;;4977939;28;20055;-86
2023/06/16 01:20:22;;;;;;;11.85;5.57;;;15.20;96.20;;;;;;4976640;28;20043;-86
2023/06/16 01:22:50;;;;;;;10.95;5.50;;;15.10;96.90;;;;;;4995586;28;20053;-87
2023/06/16 01:25:22;;;;;;;12.10;5.85;;;15.10;96.40;;;;;;4977803;28;20058;-86
2023/06/16 01:27:52;;;;;;;11.05;5.70;;;15.10;96.50;;;;;;4995001;28;20057;-87
2023/06/16 01:30:21;;;;;;;11.88;5.90;;;15.10;96.50;;;;;;4977694;28;20090;-86
2023/06/16 01:32:51;;;;;;;11.55;6.18;;;15.00;96.50;;;;;;4978324;28;20050;-86
2023/06/16 01:35:18;;;;;;;11.02;5.30;;;15.30;96.70;;;;;;4984683;28;20054;-86
2023/06/16 01:37:44;;;;;;;11.63;5.78;;;15.00;96.70;;;;;;4958696;28;20137;-86
2023/06/16 01:40:12;;;;;;;11.10;5.65;;;15.30;96.60;;;;;;4958494;28;20071;-87
2023/06/16 01:42:38;;;;;;;12.82;5.45;;;15.00;96.60;;;;;;4957869;28;20042;-86
2023/06/16 01:45:05;;;;;;;10.65;5.95;;;15.00;96.60;;;;;;4958173;28;20097;-86
2023/06/16 01:47:32;;;;;;;10.35;5.70;;;14.90;96.70;;;;;;4990265;28;20042;-86
2023/06/16 01:49:58;;;;;;;11.77;6.30;;;15.30;96.90;;;;;;4970405;28;20375;-87
2023/06/16 01:52:41;;;;;;;11.35;6.03;;;15.20;96.90;;;;;;4958622;28;20042;-87
2023/06/16 01:55:08;;;;;;;12.73;6.22;;;14.70;96.90;;;;;;4974961;28;20077;-86
2023/06/16 01:57:35;;;;;;;11.13;5.95;;;14.70;96.80;;;;;;4975704;28;20042;-87
2023/06/16 02:00:27;;;;;;;11.27;6.65;;;15.20;97.30;;;;;;4958120;28;20055;-86
2023/06/16 02:03:15;;;;;;;11.73;6.60;;;14.70;97.30;;;;;;4990779;28;20082;-86
2023/06/16 02:05:47;;;;;;;11.93;6.95;;;15.30;97.60;;;;;;4965630;28;20517;-86
2023/06/16 02:08:29;;;;;;;13.50;7.38;;;15.50;97.50;;;;;;4957552;28;20081;-86
2023/06/16 02:10:55;;;;;;;14.35;7.30;;;14.60;97.90;;;;;;4957602;28;20455;-86
2023/06/16 02:13:21;;;;;;;12.43;7.15;;;15.30;97.50;;;;;;4975175;28;20125;-86
2023/06/16 02:16:06;;;;;;;14.95;7.60;;;15.20;97.50;;;;;;4975466;28;20134;-86
2023/06/16 02:18:32;;;;;;;12.93;7.30;;;15.10;98.00;;;;;;4957366;28;20066;-87
2023/06/16 02:20:58;;;;;;;12.38;7.45;;;15.50;98.00;;;;;;4974920;28;20121;-87
2023/06/16 02:23:42;;;;;;;12.55;6.95;;;14.70;97.70;;;;;;4956719;28;20202;-86
2023/06/16 02:26:08;;;;;;;12.02;7.00;;;15.40;98.80;;;;;;4957639;28;20058;-87
2023/06/16 02:28:33;;;;;;;12.00;7.00;;;14.30;98.30;;;;;;4957891;28;20035;-86
2023/06/16 02:30:59;;;;;;;11.75;6.50;;;14.60;99.10;;;;;;4974706;28;20137;-87
2023/06/16 02:33:25;;;;;;;12.02;6.68;;;14.70;99.30;;;;;;4957768;28;20141;-87
2023/06/16 02:36:27;;;;;;;11.75;6.85;;;14.10;99.50;;;;;;4982699;28;20061;-87
2023/06/16 02:38:52;;;;;;;11.85;6.53;;;13.70;99.90;;;;;;4976346;28;20049;-87
2023/06/16 02:41:18;;;;;;;12.55;6.38;;;14.10;99.80;;;;;;4979751;28;20039;-86
2023/06/16 02:43:59;;;;;;;12.05;6.60;;;15.00;99.90;;;;;;4975611;28;20086;-87
2023/06/16 02:46:25;;;;;;;11.57;6.05;;;15.00;99.90;;;;;;4975154;28;20046;-87
2023/06/16 02:48:51;;;;;;;10.90;6.60;;;14.20;99.90;;;;;;4957440;28;20031;-87
2023/06/16 02:51:16;;;;;;;12.80;6.20;;;15.10;99.90;;;;;;4957968;28;20054;-86
2023/06/16 02:53:59;;;;;;;11.43;6.40;;;14.10;99.70;;;;;;4975336;28;20082;-87
2023/06/16 02:56:25;;;;;;;11.80;6.22;;;15.00;99.90;;;;;;4975680;28;20051;-86
2023/06/16 02:58:51;;;;;;;11.07;6.15;;;15.00;99.80;;;;;;4958149;28;20376;-86
2023/06/16 03:01:16;;;;;;;12.27;6.78;;;14.90;99.90;;;;;;4976635;28;20047;-86
2023/06/16 03:03:58;;;;;;;13.35;6.43;;;14.00;99.80;;;;;;4962011;28;20401;-87
2023/06/16 03:06:23;;;;;;;13.20;6.22;;;14.90;99.90;;;;;;4974082;28;20073;-87
2023/06/16 03:08:50;;;;;;;12.25;6.35;;;14.90;99.90;;;;;;4956956;28;20039;-86
2023/06/16 03:11:34;;;;;;;11.75;6.85;;;14.10;99.90;;;;;;4956600;28;20057;-86
2023/06/16 03:14:00;;;;;;;12.05;6.60;;;13.80;99.90;;;;;;4955839;28;20043;-87
2023/06/16 03:16:27;;;;;;;12.55;7.00;;;13.80;99.90;;;;;;4956784;28;20046;-86
2023/06/16 03:19:08;;;;;;;12.07;7.25;;;14.60;99.90;;;;;;4956423;28;20502;-87
2023/06/16 03:21:34;;;;;;;14.13;7.72;;;13.90;99.90;;;;;;4956146;28;20054;-87
2023/06/16 03:24:00;;;;;;;16.60;8.30;;;14.30;99.90;;;;;;4959937;23;20051;-86
2023/06/16 03:26:26;;;;;;;15.25;8.13;;;14.70;99.90;;;;;;4953914;28;20125;-86
2023/06/16 03:29:08;;;;;;;13.82;8.40;;;13.70;99.90;;;;;;4953387;28;20101;-87
2023/06/16 03:31:33;;;;;;;15.80;8.93;;;14.70;99.90;;;;;;4953358;29;20422;-87
2023/06/16 03:33:59;;;;;;;14.75;8.95;;;14.30;99.90;;;;;;4952420;28;20051;-87
2023/06/16 03:36:42;;;;;;;15.90;8.38;;;14.70;99.90;;;;;;4954675;28;20564;-87
2023/06/16 03:39:08;;;;;;;15.82;8.82;;;13.80;99.90;;;;;;4953257;29;20050;-87
2023/06/16 03:41:34;;;;;;;15.57;9.30;;;14.80;99.90;;;;;;4952822;28;20488;-87
2023/06/16 03:44:00;;;;;;;13.13;8.38;;;14.30;99.90;;;;;;4954577;28;20484;-86
2023/06/16 03:46:41;;;;;;;14.55;8.32;;;14.60;99.90;;;;;;4953088;28;20050;-86
2023/06/16 03:49:10;;;;;;;13.55;8.02;;;14.10;99.90;;;;;;4952124;29;20186;-87
2023/06/16 03:51:37;;;;;;;13.82;8.20;;;14.50;99.90;;;;;;4954942;28;20079;-86
2023/06/16 03:54:19;;;;;;;12.82;8.02;;;14.40;99.90;;;;;;4954308;28;20101;-87
2023/06/16 03:56:45;;;;;;;13.73;7.80;;;14.30;99.90;;;;;;4954124;28;20051;-86
2023/06/16 03:59:11;;;;;;;14.05;8.25;;;14.80;99.90;;;;;;4954387;28;20055;-86
2023/06/16 04:01:53;;;;;;;15.50;8.50;;;14.10;99.90;;;;;;4956460;28;20039;-86
2023/06/16 04:04:18;;;;;;;13.25;7.85;;;14.40;99.90;;;;;;4959734;28;20089;-86
2023/06/16 04:06:44;;;;;;;13.55;7.63;;;14.20;99.90;;;;;;4955920;28;20078;-87
2023/06/16 04:09:11;;;;;;;13.27;8.00;;;14.60;99.90;;;;;;4956101;28;20058;-86
2023/06/16 04:11:52;;;;;;;14.35;8.40;;;14.80;99.90;;;;;;4957993;28;20043;-87
2023/06/16 04:14:18;;;;;;;15.60;7.53;;;14.50;99.90;;;;;;4956599;28;20051;-86
2023/06/16 04:16:44;;;;;;;14.43;7.35;;;14.50;99.90;;;;;;4955859;28;20050;-87
2023/06/16 04:19:26;;;;;;;13.65;7.60;;;14.70;99.90;;;;;;4957558;28;20043;-87
2023/06/16 04:21:52;;;;;;;16.63;8.13;;;14.00;99.90;;;;;;4957976;28;20443;-87
2023/06/16 04:24:18;;;;;;;18.02;8.15;;;14.10;99.90;;;;;;4955262;28;20059;-87
2023/06/16 04:26:43;;;;;;;14.48;7.65;;;14.20;99.90;;;;;;4958004;28;20046;-87
2023/06/16 04:29:28;;;;;;;13.50;7.40;;;14.70;99.90;;;;;;4956370;28;20090;-87
2023/06/16 04:31:59;;;;;;;13.52;8.27;;;15.10;99.90;;;;;;4957007;28;20039;-87
2023/06/16 04:34:43;;;;;;;13.07;7.63;;;14.40;99.90;;;;;;4956053;28;20134;-87
2023/06/16 04:37:11;;;;;;;12.77;7.35;;;14.50;99.90;;;;;;4955410;28;20114;-87
2023/06/16 04:39:37;;;;;;;12.52;7.57;;;14.60;99.90;;;;;;4957874;28;20106;-87
2023/06/16 04:42:18;;;;;;;12.35;7.55;;;15.30;99.90;;;;;;4956004;28;20047;-87
2023/06/16 04:44:44;;;;;;;14.55;7.70;;;15.40;99.90;;;;;;4955459;28;20047;-87
2023/06/16 04:47:09;;;;;;;15.05;7.95;;;15.50;99.90;;;;;;4957260;28;20114;-87
2023/06/16 04:49:50;;;;;;;13.27;7.57;;;14.80;99.90;;;;;;4958120;28;20558;-87
2023/06/16 04:52:16;;;;;;;12.60;7.95;;;15.50;99.90;;;;;;4955218;28;20039;-86
2023/06/16 04:54:42;;;;;;;13.18;7.45;;;15.70;99.90;;;;;;4957374;28;20050;-87
2023/06/16 04:57:39;;;;;;;14.23;7.97;;;14.80;99.90;;;;;;4958382;28;20480;-87
2023/06/16 05:00:11;;;;;;;12.40;8.07;;;14.80;99.90;;;;;;4957571;28;20062;-87
2023/06/16 05:02:37;;;;;;;14.15;8.63;;;14.90;99.90;;;;;;4957777;28;20043;-87
2023/06/16 05:05:09;;;;;;;15.07;8.40;;;15.90;99.90;;;;;;4962220;23;20146;-87
2023/06/16 05:07:36;;;;;;;14.00;8.63;;;15.00;99.90;;;;;;4955996;28;20047;-87
2023/06/16 05:10:02;;;;;;;12.98;8.10;;;15.90;99.90;;;;;;4956192;28;20395;-87
2023/06/16 05:12:28;;;;;;;16.35;8.00;;;15.10;99.90;;;;;;4956087;28;20039;-87
2023/06/16 05:15:09;;;;;;;15.48;8.95;;;15.50;99.90;;;;;;4955178;29;20134;-87
2023/06/16 05:17:37;;;;;;;16.00;8.48;;;15.20;99.90;;;;;;4955746;28;20216;-87
2023/06/16 05:20:03;;;;;;;18.30;8.63;;;15.60;99.90;;;;;;4955983;28;20053;-87
2023/06/16 05:22:44;;;;;;;14.15;8.48;;;15.30;99.90;;;;;;4955429;28;20471;-87
2023/06/16 05:25:10;;;;;;;13.23;8.18;;;15.30;99.90;;;;;;4955906;28;20057;-87
2023/06/16 05:27:35;;;;;;;14.10;7.65;;;15.40;99.90;;;;;;4948996;28;20040;-85
2023/06/16 05:30:10;;;;;;;13.80;8.00;;;15.50;99.90;;;;;;4935994;29;20135;-81
2023/06/16 05:32:36;;;;;;;14.55;9.02;;;15.50;99.90;;;;;;4952845;29;20047;-81
2023/06/16 05:35:02;;;;;;;17.02;9.00;;;15.60;99.90;;;;;;4955661;28;20043;-81
2023/06/16 05:37:28;;;;;;;13.60;8.73;;;15.70;99.90;;;;;;4955523;29;20082;-81
2023/06/16 05:39:54;;;;;;;15.38;9.05;;;15.80;99.90;;;;;;4956832;28;20044;-81
2023/06/16 05:42:20;;;;;;;15.40;9.00;;;16.00;99.90;;;;;;4954068;28;20047;-81
2023/06/16 05:44:45;;;;;;;14.75;9.10;;;16.00;99.90;;;;;;4955151;28;20043;-81
2023/06/16 05:47:11;;;;;;;16.65;9.63;;;16.10;99.90;;;;;;4953932;28;20126;-81
2023/06/16 05:49:38;;;;;;;14.43;9.10;;;16.20;99.90;;;;;;4955152;28;20125;-81
2023/06/16 05:52:05;;;;;;;13.15;8.82;;;16.30;99.90;;;;;;4954749;29;20039;-80
2023/06/16 05:54:35;;;;;;;13.77;8.80;;;16.30;99.90;;;;;;4955534;28;20051;-81
2023/06/16 05:57:01;;;;;;;14.75;9.15;;;16.40;99.90;;;;;;4954992;29;20059;-82
2023/06/16 05:59:27;;;;;;;14.70;9.15;;;16.50;99.90;;;;;;4956612;28;20039;-82
2023/06/16 06:01:53;;;;;;;15.85;9.50;;;16.60;99.90;;;;;;4954251;28;20047;-81
2023/06/16 06:04:31;;;;;;;16.35;9.25;;;16.70;99.90;;;;;;4954126;29;20059;-80
2023/06/16 06:06:57;;;;;;;14.57;8.50;;;16.80;99.90;;;;;;4954409;29;20094;-81
2023/06/16 06:09:24;;;;;;;13.93;9.15;;;16.90;99.90;;;;;;4955688;28;20094;-82
2023/06/16 06:11:50;;;;;;;14.38;9.20;;;17.00;99.90;;;;;;4954636;28;20439;-81
2023/06/16 06:14:19;;;;;;;14.43;8.73;;;17.10;99.90;;;;;;4955779;28;20494;-81
2023/06/16 06:16:45;;;;;;;13.85;8.88;;;17.50;99.90;;;;;;4954878;28;20122;-81
2023/06/16 06:19:10;;;;;;;13.30;9.07;;;17.30;99.90;;;;;;4954256;28;20105;-82
2023/06/16 06:21:38;;;;;;;15.18;9.07;;;17.40;99.90;;;;;;4955490;28;20066;-80
2023/06/16 06:24:05;;;;;;;14.00;9.02;;;17.50;99.90;;;;;;4952672;28;20066;-80
2023/06/16 06:26:30;;;;;;;14.15;8.98;;;17.50;99.90;;;;;;4954270;28;20047;-82
2023/06/16 06:28:56;;;;;;;13.00;8.05;;;17.60;99.90;;;;;;4954561;28;20392;-81
2023/06/16 06:31:22;;;;;;;14.82;8.80;;;17.70;99.90;;;;;;4953758;29;20083;-80
2023/06/16 06:33:47;;;;;;;14.32;8.60;;;18.00;99.90;;;;;;4955765;28;20046;-80
2023/06/16 06:36:21;;;;;;;13.27;8.30;;;17.90;99.90;;;;;;4953930;28;20047;-80
2023/06/16 06:38:47;;;;;;;;;;;18.20;99.90;;;;;;4954881;29;20051;-81
2023/06/16 06:41:13;;;;;;;14.73;8.65;;;18.10;99.90;;;;;;4955085;28;20008;-83
2023/06/16 06:43:38;;;;;;;13.27;8.90;;;18.20;99.90;;;;;;4953538;29;20158;-83
2023/06/16 06:46:04;;;;;;;13.10;9.00;;;18.30;99.90;;;;;;4952145;28;20035;-80
2023/06/16 06:48:30;;;;;;;14.82;8.93;;;18.30;99.90;;;;;;4954866;28;20159;-81
2023/06/16 06:50:56;;;;;;;13.15;8.18;;;18.60;99.90;;;;;;4954112;28;20043;-80
2023/06/16 06:53:21;;;;;;;12.00;7.80;;;18.60;99.90;;;;;;4954354;28;20053;-80
2023/06/16 06:55:47;;;;;;;14.23;7.97;;;18.70;99.90;;;;;;4954554;28;20100;-81
2023/06/16 06:58:14;;;;;;;12.68;7.97;;;18.90;99.90;;;;;;4951901;28;20051;-81
2023/06/16 07:00:39;;;;;;;12.57;8.20;;;19.00;99.90;;;;;;4954865;28;20047;-81
2023/06/16 07:03:05;;;;;;;12.63;7.13;;;19.20;99.90;;;;;;4966272;28;20097;-81
2023/06/16 07:05:33;;;;;;;13.27;7.55;;;19.30;99.90;;;;;;4975270;28;20145;-81
2023/06/16 07:08:02;;;;;;;12.00;7.40;;;19.40;99.90;;;;;;4937766;29;20074;-81
2023/06/16 07:10:32;;;;;;;13.80;8.38;;;19.70;99.90;;;;;;4937721;29;20059;-81
2023/06/16 07:12:58;;;;;;;11.85;7.70;;;19.80;99.90;;;;;;4970315;28;20130;-81
2023/06/16 07:15:23;;;;;;;11.65;7.00;;;20.20;99.90;;;;;;4972917;28;20085;-82
2023/06/16 07:17:49;;;;;;;11.40;6.78;;;20.10;99.90;;;;;;4973942;28;20087;-83
2023/06/16 07:20:15;;;;;;;11.68;6.80;;;20.20;99.90;;;;;;4955585;28;20043;-83
2023/06/16 07:22:42;;;;;;;11.50;7.25;;;20.20;99.90;;;;;;4973672;28;20051;-82
2023/06/16 07:25:08;;;;;;;12.52;7.55;;;20.40;98.70;;;;;;4956253;28;20133;-82
2023/06/16 07:27:34;;;;;;;11.77;7.70;;;20.40;98.90;;;;;;4955824;28;20047;-83
2023/06/16 07:30:00;;;;;;;12.32;7.70;;;20.50;99.10;;;;;;4973855;28;20057;-83
2023/06/16 07:32:26;;;;;;;12.25;7.60;;;20.70;98.50;;;;;;4955930;28;20534;-82
2023/06/16 07:34:52;;;;;;;12.23;7.57;;;21.20;98.90;;;;;;4955560;28;20403;-82
2023/06/16 07:37:18;;;;;;;12.93;7.40;;;20.90;98.30;;;;;;4973718;28;20406;-82
2023/06/16 07:39:44;;;;;;;12.10;8.13;;;21.00;98.10;;;;;;4973233;28;20043;-81
2023/06/16 07:42:10;;;;;;;11.50;7.25;;;21.10;97.80;;;;;;4973363;28;20057;-80
2023/06/16 07:44:36;;;;;;;13.43;7.57;;;21.20;97.30;;;;;;4956239;28;20047;-81
2023/06/16 07:47:01;;;;;;;11.13;7.05;;;21.30;97.00;;;;;;4972810;28;20126;-83
2023/06/16 07:49:29;;;;;;;13.10;6.65;;;21.30;96.60;;;;;;4973833;28;20039;-81
2023/06/16 07:51:54;;;;;;;11.60;6.47;;;21.40;96.00;;;;;;4956401;28;20479;-84
2023/06/16 07:54:20;;;;;;;12.93;7.32;;;21.50;95.90;;;;;;4972828;28;20074;-84
2023/06/16 07:56:47;;;;;;;10.60;6.60;;;21.50;95.40;;;;;;4956434;28;20433;-84
2023/06/16 07:59:12;;;;;;;12.27;7.10;;;21.70;95.10;;;;;;4973796;28;20069;-83
2023/06/16 08:01:38;;;;;;;12.05;6.85;;;21.70;94.90;;;;;;4973150;28;20379;-84
2023/06/16 08:04:30;;;;;;;11.23;6.32;;;21.70;94.40;;;;;;4952394;28;20091;-84
2023/06/16 08:06:57;;;;;;;10.60;6.18;;;21.80;93.30;;;;;;4898142;29;20064;-84
2023/06/16 08:09:36;;;;;;;11.77;6.40;;;21.90;92.60;;;;;;4897941;29;20049;-83
2023/06/16 08:12:02;;;;;;;11.65;6.43;;;22.10;93.00;;;;;;4934567;29;20518;-84
2023/06/16 08:14:30;;;;;;;12.18;6.40;;;22.10;92.90;;;;;;4949832;29;20126;-81
2023/06/16 08:16:55;;;;;;;13.57;6.43;;;22.20;92.90;;;;;;4953067;28;20043;-82
2023/06/16 08:19:21;;;;;;;11.55;5.60;;;22.30;92.30;;;;;;4953267;28;20043;-81
2023/06/16 08:21:46;;;;;;;10.27;5.68;;;22.50;92.30;;;;;;4953216;28;20047;-82
2023/06/16 08:24:12;;;;;;;10.25;5.80;;;22.60;91.90;;;;;;4953223;28;20051;-81
2023/06/16 08:26:38;;;;;;;10.93;5.75;;;22.60;91.40;;;;;;4953778;28;20036;-81
2023/06/16 08:29:04;;;;;;;11.75;5.72;;;22.70;91.20;;;;;;4952966;28;20043;-82
2023/06/16 08:31:29;;;;;;;10.90;5.75;;;22.70;91.30;;;;;;4952305;28;20175;-82
2023/06/16 08:33:56;;;;;;;12.60;5.60;;;23.00;91.10;;;;;;4953987;28;20126;-82
2023/06/16 08:36:24;;;;;;;9.52;5.47;;;22.90;90.90;;;;;;4951957;28;20051;-82
2023/06/16 08:39:25;;;;;;;11.55;6.30;;;23.10;90.70;;;;;;4951968;29;20058;-81
2023/06/16 08:42:10;;;;;;;13.15;5.80;;;23.20;90.50;;;;;;4953834;29;20491;-81
2023/06/16 08:44:39;;;;;;;9.82;5.43;;;23.30;90.40;;;;;;4951797;28;20047;-80
2023/06/16 08:47:08;;;;;;;11.52;5.82;;;23.40;90.20;;;;;;4952925;28;20053;-80
2023/06/16 08:49:39;;;;;;;9.68;5.53;;;23.40;90.10;;;;;;4956415;29;20082;-80
2023/06/16 08:52:08;;;;;;;12.18;5.60;;;23.50;89.70;;;;;;4954999;28;20043;-80
2023/06/16 08:54:48;;;;;;;10.48;5.15;;;23.60;89.40;;;;;;4929641;28;20055;-81
2023/06/16 08:57:17;;;;;;;9.45;4.70;;;23.80;88.60;;;;;;4956142;28;20134;-81
2023/06/16 08:59:45;;;;;;;10.30;5.00;;;23.90;87.30;;;;;;4955927;28;20471;-82
2023/06/16 09:02:11;;;;;;;9.48;4.93;;;23.90;86.50;;;;;;4955791;29;20082;-82
2023/06/16 09:04:41;;;;;;;11.23;5.20;;;24.00;86.70;;;;;;4954843;29;20051;-83
2023/06/16 09:07:07;;;;;;;10.07;5.60;;;24.10;86.90;;;;;;4955470;29;20043;-83
2023/06/16 09:09:32;;;;;;;9.60;5.35;;;24.10;86.80;;;;;;4957024;28;20089;-84
2023/06/16 09:12:20;;;;;;;12.30;4.80;;;24.30;86.60;;;;;;5044450;23;20101;-83
2023/06/16 09:15:15;;;;;;;10.57;5.68;;;24.40;86.00;;;;;;4958854;28;20090;-84
2023/06/16 09:17:48;;;;;;;13.18;5.15;;;24.70;86.10;;;;;;4957907;28;20047;-85
2023/06/16 09:20:23;;;;;;;12.85;5.50;;;24.60;86.60;;;;;;4958163;28;20046;-82
2023/06/16 09:23:32;;;;;;;10.32;5.38;;;24.80;86.50;;;;;;4959352;28;20050;-83
2023/06/16 09:25:58;;;;;;;9.43;4.50;;;24.80;83.00;;;;;;4938347;28;20142;-80
2023/06/16 09:28:34;;;;;;;9.23;4.65;;;24.90;83.40;;;;;;4958684;28;20066;-79
2023/06/16 09:31:03;;;;;;;9.65;4.68;;;24.90;82.90;;;;;;4976058;28;20047;-80
2023/06/16 09:33:29;;;;;;;9.52;4.80;;;24.90;83.00;;;;;;4975348;28;20090;-81
2023/06/16 09:35:55;;;;;;;10.45;5.28;;;25.00;82.80;;;;;;4976381;28;20053;-81
2023/06/16 09:38:20;;;;;;;11.30;5.20;;;24.70;82.10;;;;;;4975896;28;20126;-81
2023/06/16 09:40:46;;;;;;;8.50;4.68;;;24.70;82.60;;;;;;4957853;28;20085;-82
2023/06/16 09:43:15;;;;;;;9.70;4.82;;;24.90;82.80;;;;;;4956544;28;20076;-82
2023/06/16 09:45:41;;;;;;;9.48;4.85;;;24.80;81.20;;;;;;4970994;28;20505;-82
2023/06/16 09:48:10;;;;;;;11.30;5.13;;;24.70;81.00;;;;;;4941437;28;20408;-81
2023/06/16 09:50:37;;;;;;;9.15;4.75;;;24.80;81.00;;;;;;4970183;28;20542;-81
2023/06/16 09:53:08;;;;;;;9.05;4.90;;;24.80;81.30;;;;;;4956706;28;20042;-81
2023/06/16 09:55:40;;;;;;;11.05;5.38;;;25.00;81.00;;;;;;4974011;28;20046;-81
2023/06/16 09:58:06;;;;;;;9.00;4.80;;;25.10;81.30;;;;;;4972385;28;20034;-81
2023/06/16 10:00:33;;;;;;;9.35;5.05;;;25.20;81.00;;;;;;4955938;28;20049;-81
2023/06/16 10:03:01;;;;;;;8.73;4.70;;;25.30;80.90;;;;;;4956993;28;20069;-81
2023/06/16 10:05:30;;;;;;;9.35;4.50;;;25.40;80.60;;;;;;4974795;28;20047;-81
2023/06/16 10:07:57;;;;;;;10.88;5.03;;;25.70;80.20;;;;;;4956338;28;20127;-80
2023/06/16 10:10:27;;;;;;;9.55;5.07;;;25.60;79.90;;;;;;4975803;28;20404;-80
2023/06/16 10:12:54;;;;;;;9.35;4.78;;;25.60;80.30;;;;;;4954238;29;20417;-80
2023/06/16 10:15:27;;;;;;;9.18;4.90;;;25.90;80.30;;;;;;4953235;28;20074;-81
2023/06/16 10:17:55;;;;;;;10.50;5.15;;;25.80;78.50;;;;;;4953927;29;20051;-81
2023/06/16 10:20:26;;;;;;;10.77;4.80;;;25.90;77.80;;;;;;4953960;28;20047;-82
2023/06/16 10:22:52;;;;;;;8.63;4.68;;;25.90;78.70;;;;;;4954046;29;20062;-81
2023/06/16 10:25:18;;;;;;;9.68;4.53;;;26.00;78.90;;;;;;4954262;29;20407;-80
2023/06/16 10:27:45;;;;;;;9.50;4.05;;;26.00;76.80;;;;;;4953895;28;20415;-81
2023/06/16 10:30:16;;;;;;;8.18;4.10;;;25.80;75.30;;;;;;4953366;29;20555;-80
2023/06/16 10:32:49;;;;;;;8.20;3.90;;;25.80;74.50;;;;;;4954174;29;20063;-81
2023/06/16 10:35:17;;;;;;;9.13;4.22;;;25.90;73.20;;;;;;4955287;28;20047;-80
2023/06/16 10:37:43;;;;;;;8.73;4.00;;;26.00;73.80;;;;;;4953520;29;20102;-80
2023/06/16 10:40:14;;;;;;;8.45;4.20;;;26.10;73.70;;;;;;4955286;28;20400;-81
2023/06/16 10:42:41;;;;;;;9.73;3.92;;;26.30;73.60;;;;;;4953685;28;20046;-80
2023/06/16 10:45:29;;;;;;;8.80;4.68;;;26.40;72.70;;;;;;4953842;29;20391;-80
2023/06/16 10:47:59;;;;;;;8.57;4.40;;;26.30;71.10;;;;;;4954630;28;20435;-80
2023/06/16 10:50:33;;;;;;;9.13;4.32;;;26.30;72.00;;;;;;4954420;28;20506;-80
2023/06/16 10:53:08;;;;;;;10.27;4.07;;;26.20;71.90;;;;;;4953758;29;20102;-80
2023/06/16 10:55:35;;;;;;;8.48;4.13;;;26.20;72.00;;;;;;4955542;28;20039;-78
2023/06/16 10:58:16;;;;;;;10.35;4.13;;;26.30;71.30;;;;;;4952536;28;20110;-78
2023/06/16 11:00:57;;;;;;;9.68;4.13;;;26.50;70.50;;;;;;4934910;29;20047;-80
2023/06/16 11:03:22;;;;;;;9.35;4.10;;;26.60;70.30;;;;;;4939060;29;20085;-80
2023/06/16 11:05:58;;;;;;;8.93;4.18;;;26.70;70.50;;;;;;4954479;28;20127;-80
2023/06/16 11:08:24;;;;;;;11.82;3.80;;;26.80;67.60;;;;;;4954639;28;20491;-80
2023/06/16 11:10:52;;;;;;;10.73;3.90;;;26.40;67.10;;;;;;4952734;28;20085;-79
2023/06/16 11:13:23;;;;;;;7.97;3.65;;;26.50;67.50;;;;;;4958983;23;20062;-78
2023/06/16 11:15:49;;;;;;;8.25;3.50;;;26.80;67.90;;;;;;4953399;28;20054;-78
2023/06/16 11:18:17;;;;;;;8.45;3.83;;;27.00;67.60;;;;;;4952268;29;20047;-79
2023/06/16 11:20:45;;;;;;;8.82;4.15;;;27.30;66.20;;;;;;4953696;28;20061;-80
2023/06/16 11:23:10;;;;;;;8.50;3.58;;;27.30;66.20;;;;;;4953079;29;20051;-79
2023/06/16 11:25:37;;;;;;;8.43;3.65;;;27.30;66.70;;;;;;4954304;28;20047;-79
2023/06/16 11:28:04;;;;;;;7.97;3.47;;;27.50;65.50;;;;;;4972205;23;20059;-79
2023/06/16 11:30:30;;;;;;;9.98;3.53;;;27.30;65.50;;;;;;4953670;28;20058;-78
2023/06/16 11:32:57;;;;;;;8.63;3.78;;;27.50;65.60;;;;;;4936588;29;20061;-77
2023/06/16 11:35:32;;;;;;;7.68;3.58;;;27.40;66.10;;;;;;4950073;28;20121;-77
2023/06/16 11:37:59;;;;;;;9.63;3.53;;;27.80;66.20;;;;;;4952955;28;20466;-77
2023/06/16 11:40:33;;;;;;;8.60;3.65;;;27.80;65.10;;;;;;4955255;28;20057;-78
2023/06/16 11:43:01;;;;;;;8.80;3.70;;;27.70;64.70;;;;;;4955817;28;20058;-77
2023/06/16 11:45:28;;;;;;;9.00;3.78;;;27.60;65.10;;;;;;4973432;28;20109;-77
2023/06/16 11:47:59;;;;;;;8.63;3.78;;;27.60;65.30;;;;;;4955008;28;20050;-78
2023/06/16 11:50:28;;;;;;;9.73;3.70;;;27.50;65.00;;;;;;4971715;28;20038;-78
2023/06/16 11:52:54;;;;;;;8.63;3.65;;;27.60;65.20;;;;;;4955488;28;20043;-78
2023/06/16 11:55:20;;;;;;;8.15;4.05;;;27.40;65.40;;;;;;4955788;28;20074;-77
2023/06/16 11:57:45;;;;;;;9.00;3.80;;;27.70;65.10;;;;;;4973429;28;20110;-78
2023/06/16 12:00:13;;;;;;;8.30;3.67;;;27.70;65.10;;;;;;4972022;28;20487;-78
2023/06/16 12:02:40;;;;;;;8.38;3.70;;;27.80;63.90;;;;;;4973040;28;20118;-78
2023/06/16 12:05:12;;;;;;;7.60;3.40;;;27.60;63.30;;;;;;4955375;28;20082;-78
2023/06/16 12:07:38;;;;;;;9.20;3.97;;;27.70;63.20;;;;;;4963227;28;20039;-77
2023/06/16 12:10:05;;;;;;;10.43;3.65;;;27.60;63.60;;;;;;4955736;28;20124;-77
2023/06/16 12:12:31;;;;;;;8.73;3.55;;;27.80;63.90;;;;;;4973132;28;20043;-77
2023/06/16 12:14:59;;;;;;;10.85;3.58;;;27.50;63.60;;;;;;4949251;28;20035;-77
2023/06/16 12:17:25;;;;;;;8.60;3.67;;;27.40;63.90;;;;;;4964393;28;20097;-77
2023/06/16 12:19:52;;;;;;;8.25;3.60;;;27.80;64.00;;;;;;4945019;28;20050;-77
2023/06/16 12:22:18;;;;;;;8.57;3.35;;;28.00;63.40;;;;;;4955170;28;20490;-77
2023/06/16 12:24:46;;;;;;;7.95;3.35;;;28.20;63.00;;;;;;4959101;28;20054;-77
2023/06/16 12:27:24;;;;;;;8.88;3.78;;;28.00;63.20;;;;;;4959274;28;20050;-77
2023/06/16 12:29:57;;;;;;;8.70;3.55;;;28.10;64.20;;;;;;4955079;29;20063;-77
2023/06/16 12:32:32;;;;;;;8.05;3.50;;;28.00;63.10;;;;;;4956176;28;20047;-77
2023/06/16 12:34:58;;;;;;;7.55;3.50;;;27.70;61.40;;;;;;4954468;29;20039;-78
2023/06/16 12:37:26;;;;;;;8.50;3.75;;;27.70;62.60;;;;;;4957686;28;20171;-78
2023/06/16 12:40:07;;;;;;;7.95;3.20;;;27.70;62.40;;;;;;4956165;29;20043;-77
2023/06/16 12:42:34;;;;;;;8.63;3.45;;;28.10;62.00;;;;;;4956979;28;20079;-78
2023/06/16 12:45:02;;;;;;;7.78;3.50;;;28.30;62.30;;;;;;4957341;28;20054;-79
2023/06/16 12:47:29;;;;;;;10.63;3.80;;;28.40;62.00;;;;;;4957503;28;20051;-80
2023/06/16 12:49:57;;;;;;;8.85;3.78;;;28.10;61.80;;;;;;4956696;28;20051;-80
2023/06/16 12:52:24;;;;;;;9.57;3.85;;;28.00;62.30;;;;;;4956175;29;20094;-78